sensor_id;sensor_type;location;lat;lon;timestamp;temperature;humidity
76967;DHT22;65904;52.278;20.972;2023-03-31T00:00:53;10.60;99.90
76967;DHT22;65904;52.278;20.972;2023-03-31T00:03:42;10.60;99.90
76967;DHT22;65904;52.278;20.972;2023-03-31T00:06:29;10.60;99.90
76967;DHT22;65904;52.278;20.972;2023-03-31T00:09:16;10.60;99.90
76967;DHT22;65904;52.278;20.972;2023-03-31T00:12:02;10.60;99.90
76967;DHT22;65904;52.278;20.972;2023-03-31T00:14:48;10.60;99.90
76967;DHT22;65904;52.278;20.972;2023-03-31T00:17:36;10.60;99.90
76967;DHT22;65904;52.278;20.972;2023-03-31T00:20:22;10.60;99.90
76967;DHT22;65904;52.278;20.972;2023-03-31T00:23:08;10.70;99.90
76967;DHT22;65904;52.278;20.972;2023-03-31T00:25:54;10.70;99.90
76967;DHT22;65904;52.278;20.972;2023-03-31T00:28:40;10.60;99.90
76967;DHT22;65904;52.278;20.972;2023-03-31T00:31:27;10.60;99.90
76967;DHT22;65904;52.278;20.972;2023-03-31T00:34:14;10.60;99.90
76967;DHT22;65904;52.278;20.972;2023-03-31T00:37:00;10.60;99.90
76967;DHT22;65904;52.278;20.972;2023-03-31T00:39:47;10.70;99.90
76967;DHT22;65904;52.278;20.972;2023-03-31T00:42:33;10.70;99.90
76967;DHT22;65904;52.278;20.972;2023-03-31T00:45:26;10.70;99.90
76967;DHT22;65904;52.278;20.972;2023-03-31T00:48:16;10.70;99.90
76967;DHT22;65904;52.278;20.972;2023-03-31T00:51:05;10.70;99.90
76967;DHT22;65904;52.278;20.972;2023-03-31T00:53:55;10.60;99.90
76967;DHT22;65904;52.278;20.972;2023-03-31T00:56:44;10.60;99.90
76967;DHT22;65904;52.278;20.972;2023-03-31T00:59:36;10.60;99.90
76967;DHT22;65904;52.278;20.972;2023-03-31T01:02:23;10.60;99.90
76967;DHT22;65904;52.278;20.972;2023-03-31T01:05:10;10.60;99.90
76967;DHT22;65904;52.278;20.972;2023-03-31T01:07:58;10.60;99.90
76967;DHT22;65904;52.278;20.972;2023-03-31T01:10:48;10.50;99.90
76967;DHT22;65904;52.278;20.972;2023-03-31T01:13:37;10.50;99.90
76967;DHT22;65904;52.278;20.972;2023-03-31T01:16:27;10.50;99.90
76967;DHT22;65904;52.278;20.972;2023-03-31T01:19:19;10.50;99.90
76967;DHT22;65904;52.278;20.972;2023-03-31T01:22:36;10.50;99.90
76967;DHT22;65904;52.278;20.972;2023-03-31T01:26:01;10.50;99.90
76967;DHT22;65904;52.278;20.972;2023-03-31T01:29:00;10.50;99.90
76967;DHT22;65904;52.278;20.972;2023-03-31T01:32:16;10.50;99.90
76967;DHT22;65904;52.278;20.972;2023-03-31T01:35:41;10.40;99.90
76967;DHT22;65904;52.278;20.972;2023-03-31T01:38:58;10.40;99.90
76967;DHT22;65904;52.278;20.972;2023-03-31T01:41:56;10.40;99.90
76967;DHT22;65904;52.278;20.972;2023-03-31T01:44:44;10.40;99.90
76967;DHT22;65904;52.278;20.972;2023-03-31T01:47:34;10.40;99.90
76967;DHT22;65904;52.278;20.972;2023-03-31T01:50:27;10.30;99.90
76967;DHT22;65904;52.278;20.972;2023-03-31T01:53:19;10.30;99.90
76967;DHT22;65904;52.278;20.972;2023-03-31T01:56:10;10.30;99.90
76967;DHT22;65904;52.278;20.972;2023-03-31T01:59:02;10.30;99.90
76967;DHT22;65904;52.278;20.972;2023-03-31T02:01:54;10.30;99.90
76967;DHT22;65904;52.278;20.972;2023-03-31T02:04:46;10.30;99.90
76967;DHT22;65904;52.278;20.972;2023-03-31T02:07:34;10.30;99.90
76967;DHT22;65904;52.278;20.972;2023-03-31T02:10:24;10.20;99.90
76967;DHT22;65904;52.278;20.972;2023-03-31T02:13:16;10.20;99.90
76967;DHT22;65904;52.278;20.972;2023-03-31T02:16:09;10.20;99.90
76967;DHT22;65904;52.278;20.972;2023-03-31T02:18:58;10.20;99.90
76967;DHT22;65904;52.278;20.972;2023-03-31T02:21:48;10.20;99.90
76967;DHT22;65904;52.278;20.972;2023-03-31T02:24:35;10.10;99.90
76967;DHT22;65904;52.278;20.972;2023-03-31T02:27:25;10.10;99.90
76967;DHT22;65904;52.278;20.972;2023-03-31T02:30:13;10.10;99.90
76967;DHT22;65904;52.278;20.972;2023-03-31T02:33:02;10.10;99.90
76967;DHT22;65904;52.278;20.972;2023-03-31T02:35:49;10.10;99.90
76967;DHT22;65904;52.278;20.972;2023-03-31T02:38:38;10.10;99.90
76967;DHT22;65904;52.278;20.972;2023-03-31T02:41:26;10.10;99.90
76967;DHT22;65904;52.278;20.972;2023-03-31T02:44:14;10.10;99.90
76967;DHT22;65904;52.278;20.972;2023-03-31T02:47:06;10.10;99.90
76967;DHT22;65904;52.278;20.972;2023-03-31T02:49:57;10.10;99.90
76967;DHT22;65904;52.278;20.972;2023-03-31T02:52:53;10.00;99.90
76967;DHT22;65904;52.278;20.972;2023-03-31T02:55:54;10.00;99.90
76967;DHT22;65904;52.278;20.972;2023-03-31T02:58:59;9.90;99.90
76967;DHT22;65904;52.278;20.972;2023-03-31T03:02:03;9.90;99.90
76967;DHT22;65904;52.278;20.972;2023-03-31T03:05:27;9.90;99.90
76967;DHT22;65904;52.278;20.972;2023-03-31T03:08:50;9.90;99.90
76967;DHT22;65904;52.278;20.972;2023-03-31T03:11:46;9.90;99.90
76967;DHT22;65904;52.278;20.972;2023-03-31T03:14:38;9.90;99.90
76967;DHT22;65904;52.278;20.972;2023-03-31T03:17:31;9.90;99.90
76967;DHT22;65904;52.278;20.972;2023-03-31T03:20:19;9.90;99.90
76967;DHT22;65904;52.278;20.972;2023-03-31T03:23:07;9.90;99.90
76967;DHT22;65904;52.278;20.972;2023-03-31T03:25:54;9.90;99.90
76967;DHT22;65904;52.278;20.972;2023-03-31T03:28:41;9.90;99.90
76967;DHT22;65904;52.278;20.972;2023-03-31T03:31:27;9.90;99.90
76967;DHT22;65904;52.278;20.972;2023-03-31T03:34:14;9.90;99.90
76967;DHT22;65904;52.278;20.972;2023-03-31T03:37:02;9.90;99.90
76967;DHT22;65904;52.278;20.972;2023-03-31T03:39:49;9.90;99.90
76967;DHT22;65904;52.278;20.972;2023-03-31T03:42:36;9.80;99.90
76967;DHT22;65904;52.278;20.972;2023-03-31T03:45:22;9.80;99.90
76967;DHT22;65904;52.278;20.972;2023-03-31T03:48:08;9.70;99.90
76967;DHT22;65904;52.278;20.972;2023-03-31T03:50:54;9.70;99.90
76967;DHT22;65904;52.278;20.972;2023-03-31T03:53:41;9.70;99.90
76967;DHT22;65904;52.278;20.972;2023-03-31T03:56:28;9.60;99.90
76967;DHT22;65904;52.278;20.972;2023-03-31T03:59:14;9.60;99.90
76967;DHT22;65904;52.278;20.972;2023-03-31T04:02:01;9.60;99.90
76967;DHT22;65904;52.278;20.972;2023-03-31T04:04:47;9.60;99.90
76967;DHT22;65904;52.278;20.972;2023-03-31T04:07:33;9.50;99.90
76967;DHT22;65904;52.278;20.972;2023-03-31T04:10:19;9.40;99.90
76967;DHT22;65904;52.278;20.972;2023-03-31T04:13:06;9.40;99.90
76967;DHT22;65904;52.278;20.972;2023-03-31T04:15:53;9.30;99.90
76967;DHT22;65904;52.278;20.972;2023-03-31T04:18:39;9.20;99.90
76967;DHT22;65904;52.278;20.972;2023-03-31T04:21:26;9.10;99.90
76967;DHT22;65904;52.278;20.972;2023-03-31T04:24:14;9.00;99.90
76967;DHT22;65904;52.278;20.972;2023-03-31T04:27:05;9.00;99.90
76967;DHT22;65904;52.278;20.972;2023-03-31T04:29:53;9.00;99.90
76967;DHT22;65904;52.278;20.972;2023-03-31T04:32:39;8.90;99.90
76967;DHT22;65904;52.278;20.972;2023-03-31T04:35:27;8.90;99.90
76967;DHT22;65904;52.278;20.972;2023-03-31T04:38:26;8.80;99.90
76967;DHT22;65904;52.278;20.972;2023-03-31T04:41:17;8.80;99.90
76967;DHT22;65904;52.278;20.972;2023-03-31T04:44:04;8.70;99.90
76967;DHT22;65904;52.278;20.972;2023-03-31T04:46:52;8.70;99.90
76967;DHT22;65904;52.278;20.972;2023-03-31T04:49:38;8.70;99.90
76967;DHT22;65904;52.278;20.972;2023-03-31T04:52:24;8.70;99.90
76967;DHT22;65904;52.278;20.972;2023-03-31T04:55:11;8.80;99.90
76967;DHT22;65904;52.278;20.972;2023-03-31T04:57:57;8.90;99.90
76967;DHT22;65904;52.278;20.972;2023-03-31T05:00:43;8.90;99.90
76967;DHT22;65904;52.278;20.972;2023-03-31T05:03:31;8.90;99.90
76967;DHT22;65904;52.278;20.972;2023-03-31T05:06:17;9.00;99.90
76967;DHT22;65904;52.278;20.972;2023-03-31T05:09:04;9.00;99.90
76967;DHT22;65904;52.278;20.972;2023-03-31T05:11:50;9.10;99.90
76967;DHT22;65904;52.278;20.972;2023-03-31T05:14:36;9.20;99.90
76967;DHT22;65904;52.278;20.972;2023-03-31T05:17:23;9.30;99.90
76967;DHT22;65904;52.278;20.972;2023-03-31T05:20:11;9.40;99.90
76967;DHT22;65904;52.278;20.972;2023-03-31T05:22:58;9.40;99.90
76967;DHT22;65904;52.278;20.972;2023-03-31T05:25:44;9.40;99.90
76967;DHT22;65904;52.278;20.972;2023-03-31T05:28:32;9.50;99.90
76967;DHT22;65904;52.278;20.972;2023-03-31T05:31:19;9.50;99.90
76967;DHT22;65904;52.278;20.972;2023-03-31T05:34:05;9.50;99.90
76967;DHT22;65904;52.278;20.972;2023-03-31T05:36:53;9.60;99.90
76967;DHT22;65904;52.278;20.972;2023-03-31T05:39:39;9.60;99.90
76967;DHT22;65904;52.278;20.972;2023-03-31T05:42:25;9.60;99.90
76967;DHT22;65904;52.278;20.972;2023-03-31T05:45:12;9.70;99.90
76967;DHT22;65904;52.278;20.972;2023-03-31T05:47:58;9.70;99.90
76967;DHT22;65904;52.278;20.972;2023-03-31T05:50:45;9.80;99.90
76967;DHT22;65904;52.278;20.972;2023-03-31T05:53:34;9.80;99.90
76967;DHT22;65904;52.278;20.972;2023-03-31T05:56:20;9.90;99.90
76967;DHT22;65904;52.278;20.972;2023-03-31T05:59:06;9.90;99.90
76967;DHT22;65904;52.278;20.972;2023-03-31T06:01:52;9.90;99.90
76967;DHT22;65904;52.278;20.972;2023-03-31T06:04:38;9.90;99.90
76967;DHT22;65904;52.278;20.972;2023-03-31T06:07:28;9.90;99.90
76967;DHT22;65904;52.278;20.972;2023-03-31T06:10:16;10.00;99.90
76967;DHT22;65904;52.278;20.972;2023-03-31T06:13:02;10.00;99.90
76967;DHT22;65904;52.278;20.972;2023-03-31T06:15:52;10.00;99.90
76967;DHT22;65904;52.278;20.972;2023-03-31T06:18:39;10.00;99.90
76967;DHT22;65904;52.278;20.972;2023-03-31T06:21:25;10.00;99.90
76967;DHT22;65904;52.278;20.972;2023-03-31T06:24:12;10.10;99.90
76967;DHT22;65904;52.278;20.972;2023-03-31T06:26:59;10.20;99.90
76967;DHT22;65904;52.278;20.972;2023-03-31T06:29:46;10.20;99.90
76967;DHT22;65904;52.278;20.972;2023-03-31T06:32:33;10.30;99.90
76967;DHT22;65904;52.278;20.972;2023-03-31T06:35:20;10.40;99.90
76967;DHT22;65904;52.278;20.972;2023-03-31T06:38:06;10.40;99.90
76967;DHT22;65904;52.278;20.972;2023-03-31T06:40:53;10.40;99.90
76967;DHT22;65904;52.278;20.972;2023-03-31T06:43:40;10.40;99.90
76967;DHT22;65904;52.278;20.972;2023-03-31T06:46:27;10.40;99.90
76967;DHT22;65904;52.278;20.972;2023-03-31T06:49:13;10.40;99.90
76967;DHT22;65904;52.278;20.972;2023-03-31T06:51:59;10.50;99.90
76967;DHT22;65904;52.278;20.972;2023-03-31T06:54:45;10.60;99.90
76967;DHT22;65904;52.278;20.972;2023-03-31T06:57:31;10.60;99.90
76967;DHT22;65904;52.278;20.972;2023-03-31T07:00:19;10.70;99.90
76967;DHT22;65904;52.278;20.972;2023-03-31T07:03:06;10.80;99.90
76967;DHT22;65904;52.278;20.972;2023-03-31T07:05:53;10.90;99.90
76967;DHT22;65904;52.278;20.972;2023-03-31T07:08:39;10.90;99.90
76967;DHT22;65904;52.278;20.972;2023-03-31T07:11:25;11.00;99.90
76967;DHT22;65904;52.278;20.972;2023-03-31T07:14:11;11.00;99.90
76967;DHT22;65904;52.278;20.972;2023-03-31T07:16:59;10.90;99.90
76967;DHT22;65904;52.278;20.972;2023-03-31T07:19:45;11.00;99.90
76967;DHT22;65904;52.278;20.972;2023-03-31T07:22:32;11.20;99.90
76967;DHT22;65904;52.278;20.972;2023-03-31T07:25:18;11.30;99.90
76967;DHT22;65904;52.278;20.972;2023-03-31T07:28:05;11.40;99.90
76967;DHT22;65904;52.278;20.972;2023-03-31T07:30:51;11.50;99.90
76967;DHT22;65904;52.278;20.972;2023-03-31T07:33:38;11.60;99.90
76967;DHT22;65904;52.278;20.972;2023-03-31T07:36:25;11.70;99.90
76967;DHT22;65904;52.278;20.972;2023-03-31T07:39:11;11.70;99.90
76967;DHT22;65904;52.278;20.972;2023-03-31T07:41:57;11.70;99.90
76967;DHT22;65904;52.278;20.972;2023-03-31T07:44:44;11.60;99.90
76967;DHT22;65904;52.278;20.972;2023-03-31T07:47:31;11.60;99.90
76967;DHT22;65904;52.278;20.972;2023-03-31T07:50:19;11.60;99.90
76967;DHT22;65904;52.278;20.972;2023-03-31T07:53:08;11.80;99.90
76967;DHT22;65904;52.278;20.972;2023-03-31T07:55:54;11.80;99.90
76967;DHT22;65904;52.278;20.972;2023-03-31T07:58:41;11.90;99.90
76967;DHT22;65904;52.278;20.972;2023-03-31T08:01:26;12.00;99.90
76967;DHT22;65904;52.278;20.972;2023-03-31T08:04:13;12.00;99.90
76967;DHT22;65904;52.278;20.972;2023-03-31T08:07:00;12.10;99.90
76967;DHT22;65904;52.278;20.972;2023-03-31T08:09:47;12.00;99.90
76967;DHT22;65904;52.278;20.972;2023-03-31T08:12:33;12.00;99.90
76967;DHT22;65904;52.278;20.972;2023-03-31T08:15:19;12.10;99.90
76967;DHT22;65904;52.278;20.972;2023-03-31T08:18:05;12.30;99.90
76967;DHT22;65904;52.278;20.972;2023-03-31T08:20:51;12.40;99.90
76967;DHT22;65904;52.278;20.972;2023-03-31T08:23:39;12.30;99.90
76967;DHT22;65904;52.278;20.972;2023-03-31T08:26:25;12.10;99.90
76967;DHT22;65904;52.278;20.972;2023-03-31T08:29:12;11.90;99.90
76967;DHT22;65904;52.278;20.972;2023-03-31T08:31:59;11.80;99.90
76967;DHT22;65904;52.278;20.972;2023-03-31T08:34:45;11.70;99.90
76967;DHT22;65904;52.278;20.972;2023-03-31T08:37:31;11.60;99.90
76967;DHT22;65904;52.278;20.972;2023-03-31T08:40:23;11.60;99.90
76967;DHT22;65904;52.278;20.972;2023-03-31T08:43:15;11.60;99.90
76967;DHT22;65904;52.278;20.972;2023-03-31T08:46:04;11.70;99.90
76967;DHT22;65904;52.278;20.972;2023-03-31T08:48:53;12.00;99.90
76967;DHT22;65904;52.278;20.972;2023-03-31T08:51:42;12.20;99.90
76967;DHT22;65904;52.278;20.972;2023-03-31T08:54:32;12.30;99.90
76967;DHT22;65904;52.278;20.972;2023-03-31T08:57:24;12.40;99.90
76967;DHT22;65904;52.278;20.972;2023-03-31T09:00:14;12.40;99.90
76967;DHT22;65904;52.278;20.972;2023-03-31T09:03:01;12.90;99.90
76967;DHT22;65904;52.278;20.972;2023-03-31T09:05:55;13.60;99.90
76967;DHT22;65904;52.278;20.972;2023-03-31T09:08:44;14.10;99.90
76967;DHT22;65904;52.278;20.972;2023-03-31T09:11:34;14.10;99.90
76967;DHT22;65904;52.278;20.972;2023-03-31T09:14:28;14.10;99.90
76967;DHT22;65904;52.278;20.972;2023-03-31T09:17:20;14.00;99.90
76967;DHT22;65904;52.278;20.972;2023-03-31T09:20:13;13.70;99.90
76967;DHT22;65904;52.278;20.972;2023-03-31T09:23:07;13.60;99.90
76967;DHT22;65904;52.278;20.972;2023-03-31T09:25:57;13.70;99.90
76967;DHT22;65904;52.278;20.972;2023-03-31T09:28:45;13.70;99.90
76967;DHT22;65904;52.278;20.972;2023-03-31T09:31:34;13.90;99.90
76967;DHT22;65904;52.278;20.972;2023-03-31T09:34:27;14.00;99.90
76967;DHT22;65904;52.278;20.972;2023-03-31T09:37:15;14.10;99.90
76967;DHT22;65904;52.278;20.972;2023-03-31T09:40:04;14.30;99.90
76967;DHT22;65904;52.278;20.972;2023-03-31T09:42:55;14.60;99.90
76967;DHT22;65904;52.278;20.972;2023-03-31T09:45:43;14.70;99.90
76967;DHT22;65904;52.278;20.972;2023-03-31T09:48:34;14.70;99.90
76967;DHT22;65904;52.278;20.972;2023-03-31T09:51:25;15.00;99.90
76967;DHT22;65904;52.278;20.972;2023-03-31T09:54:19;15.40;99.90
76967;DHT22;65904;52.278;20.972;2023-03-31T09:57:23;15.00;99.90
76967;DHT22;65904;52.278;20.972;2023-03-31T10:00:15;15.10;99.90
76967;DHT22;65904;52.278;20.972;2023-03-31T10:03:03;15.00;99.90
76967;DHT22;65904;52.278;20.972;2023-03-31T10:05:54;14.90;99.90
76967;DHT22;65904;52.278;20.972;2023-03-31T10:08:42;14.80;99.90
76967;DHT22;65904;52.278;20.972;2023-03-31T10:11:32;15.10;99.90
76967;DHT22;65904;52.278;20.972;2023-03-31T10:14:24;15.30;99.90
76967;DHT22;65904;52.278;20.972;2023-03-31T10:17:14;15.00;99.90
76967;DHT22;65904;52.278;20.972;2023-03-31T10:20:13;15.40;99.90
76967;DHT22;65904;52.278;20.972;2023-03-31T10:23:05;15.80;99.90
76967;DHT22;65904;52.278;20.972;2023-03-31T10:26:00;16.30;99.90
76967;DHT22;65904;52.278;20.972;2023-03-31T10:28:50;16.60;99.90
76967;DHT22;65904;52.278;20.972;2023-03-31T10:31:37;16.90;99.90
76967;DHT22;65904;52.278;20.972;2023-03-31T10:34:24;16.50;99.90
76967;DHT22;65904;52.278;20.972;2023-03-31T10:37:15;16.30;99.90
76967;DHT22;65904;52.278;20.972;2023-03-31T10:40:12;16.40;99.90
76967;DHT22;65904;52.278;20.972;2023-03-31T10:43:03;16.50;99.90
76967;DHT22;65904;52.278;20.972;2023-03-31T10:45:51;16.20;99.90
76967;DHT22;65904;52.278;20.972;2023-03-31T10:48:40;16.30;99.90
76967;DHT22;65904;52.278;20.972;2023-03-31T10:51:27;16.50;99.90
76967;DHT22;65904;52.278;20.972;2023-03-31T10:54:14;16.00;99.90
76967;DHT22;65904;52.278;20.972;2023-03-31T10:57:04;16.50;99.90
76967;DHT22;65904;52.278;20.972;2023-03-31T11:00:01;16.80;99.40
76967;DHT22;65904;52.278;20.972;2023-03-31T11:03:12;16.70;99.50
76967;DHT22;65904;52.278;20.972;2023-03-31T11:06:04;16.30;99.70
76967;DHT22;65904;52.278;20.972;2023-03-31T11:09:02;16.10;99.90
76967;DHT22;65904;52.278;20.972;2023-03-31T11:11:57;17.00;98.80
76967;DHT22;65904;52.278;20.972;2023-03-31T11:14:58;16.80;98.90
76967;DHT22;65904;52.278;20.972;2023-03-31T11:18:06;16.60;98.80
76967;DHT22;65904;52.278;20.972;2023-03-31T11:21:00;16.50;99.30
76967;DHT22;65904;52.278;20.972;2023-03-31T11:24:00;17.10;98.80
76967;DHT22;65904;52.278;20.972;2023-03-31T11:26:55;17.60;98.70
76967;DHT22;65904;52.278;20.972;2023-03-31T11:29:50;17.00;98.70
76967;DHT22;65904;52.278;20.972;2023-03-31T11:32:56;16.90;99.10
76967;DHT22;65904;52.278;20.972;2023-03-31T11:35:57;17.30;98.70
76967;DHT22;65904;52.278;20.972;2023-03-31T11:38:57;17.20;98.40
76967;DHT22;65904;52.278;20.972;2023-03-31T11:41:48;17.30;99.00
76967;DHT22;65904;52.278;20.972;2023-03-31T11:44:39;18.10;98.10
76967;DHT22;65904;52.278;20.972;2023-03-31T11:47:29;19.50;96.40
76967;DHT22;65904;52.278;20.972;2023-03-31T11:50:20;18.90;95.10
76967;DHT22;65904;52.278;20.972;2023-03-31T11:53:11;17.70;97.40
76967;DHT22;65904;52.278;20.972;2023-03-31T11:56:01;17.70;97.40
76967;DHT22;65904;52.278;20.972;2023-03-31T11:58:51;17.80;97.10
76967;DHT22;65904;52.278;20.972;2023-03-31T12:01:43;17.80;96.80
76967;DHT22;65904;52.278;20.972;2023-03-31T12:04:33;17.90;96.50
76967;DHT22;65904;52.278;20.972;2023-03-31T12:07:28;17.50;96.70
76967;DHT22;65904;52.278;20.972;2023-03-31T12:10:20;17.70;97.20
76967;DHT22;65904;52.278;20.972;2023-03-31T12:13:25;17.50;97.40
76967;DHT22;65904;52.278;20.972;2023-03-31T12:16:18;17.40;97.20
76967;DHT22;65904;52.278;20.972;2023-03-31T12:19:12;17.40;97.50
76967;DHT22;65904;52.278;20.972;2023-03-31T12:22:09;17.50;97.30
76967;DHT22;65904;52.278;20.972;2023-03-31T12:24:58;17.80;97.00
76967;DHT22;65904;52.278;20.972;2023-03-31T12:27:45;18.10;96.30
76967;DHT22;65904;52.278;20.972;2023-03-31T12:30:36;18.60;95.90
76967;DHT22;65904;52.278;20.972;2023-03-31T12:33:28;18.00;95.90
76967;DHT22;65904;52.278;20.972;2023-03-31T12:36:24;17.80;96.50
76967;DHT22;65904;52.278;20.972;2023-03-31T12:39:24;19.10;95.00
76967;DHT22;65904;52.278;20.972;2023-03-31T12:42:31;18.90;94.50
76967;DHT22;65904;52.278;20.972;2023-03-31T12:45:25;18.80;95.00
76967;DHT22;65904;52.278;20.972;2023-03-31T12:48:33;19.50;92.90
76967;DHT22;65904;52.278;20.972;2023-03-31T12:51:32;20.20;91.80
76967;DHT22;65904;52.278;20.972;2023-03-31T13:01:20;17.90;95.10
76967;DHT22;65904;52.278;20.972;2023-03-31T13:04:07;17.80;95.00
76967;DHT22;65904;52.278;20.972;2023-03-31T13:06:56;17.70;95.00
76967;DHT22;65904;52.278;20.972;2023-03-31T13:09:48;17.40;95.50
76967;DHT22;65904;52.278;20.972;2023-03-31T13:12:37;17.60;96.00
76967;DHT22;65904;52.278;20.972;2023-03-31T13:15:25;17.70;95.30
76967;DHT22;65904;52.278;20.972;2023-03-31T13:18:18;18.80;94.10
76967;DHT22;65904;52.278;20.972;2023-03-31T13:21:05;19.80;92.10
76967;DHT22;65904;52.278;20.972;2023-03-31T13:23:58;20.10;91.10
76967;DHT22;65904;52.278;20.972;2023-03-31T13:26:46;19.70;90.80
76967;DHT22;65904;52.278;20.972;2023-03-31T13:29:40;19.10;91.80
76967;DHT22;65904;52.278;20.972;2023-03-31T13:32:28;18.50;93.20
76967;DHT22;65904;52.278;20.972;2023-03-31T13:35:17;18.10;94.50
76967;DHT22;65904;52.278;20.972;2023-03-31T13:38:09;17.50;95.10
76967;DHT22;65904;52.278;20.972;2023-03-31T13:44:31;16.90;96.10
76967;DHT22;65904;52.278;20.972;2023-03-31T13:47:49;16.80;96.70
76967;DHT22;65904;52.278;20.972;2023-03-31T13:50:56;16.30;97.20
76967;DHT22;65904;52.278;20.972;2023-03-31T14:00:37;15.80;98.50
76967;DHT22;65904;52.278;20.972;2023-03-31T14:03:37;15.90;98.50
76967;DHT22;65904;52.278;20.972;2023-03-31T14:06:35;15.90;98.50
76967;DHT22;65904;52.278;20.972;2023-03-31T14:09:26;16.00;98.40
76967;DHT22;65904;52.278;20.972;2023-03-31T14:12:19;16.00;98.10
76967;DHT22;65904;52.278;20.972;2023-03-31T14:15:18;16.00;97.80
76967;DHT22;65904;52.278;20.972;2023-03-31T14:18:10;16.70;97.10
76967;DHT22;65904;52.278;20.972;2023-03-31T14:21:20;17.90;95.20
76967;DHT22;65904;52.278;20.972;2023-03-31T14:24:13;17.90;94.70
76967;DHT22;65904;52.278;20.972;2023-03-31T14:27:10;17.70;94.90
76967;DHT22;65904;52.278;20.972;2023-03-31T14:30:03;17.30;95.20
76967;DHT22;65904;52.278;20.972;2023-03-31T14:33:02;16.70;96.00
76967;DHT22;65904;52.278;20.972;2023-03-31T14:35:54;16.40;96.90
76967;DHT22;65904;52.278;20.972;2023-03-31T14:38:44;16.30;97.10
76967;DHT22;65904;52.278;20.972;2023-03-31T14:41:30;16.20;97.50
76967;DHT22;65904;52.278;20.972;2023-03-31T14:44:17;16.40;97.50
76967;DHT22;65904;52.278;20.972;2023-03-31T14:47:04;16.80;96.80
76967;DHT22;65904;52.278;20.972;2023-03-31T14:49:58;17.30;96.00
76967;DHT22;65904;52.278;20.972;2023-03-31T14:52:46;17.90;95.50
76967;DHT22;65904;52.278;20.972;2023-03-31T14:55:34;17.60;95.40
76967;DHT22;65904;52.278;20.972;2023-03-31T14:58:23;17.50;95.60
76967;DHT22;65904;52.278;20.972;2023-03-31T15:01:14;17.50;95.60
76967;DHT22;65904;52.278;20.972;2023-03-31T15:04:06;17.30;95.50
76967;DHT22;65904;52.278;20.972;2023-03-31T15:06:54;17.50;95.80
76967;DHT22;65904;52.278;20.972;2023-03-31T15:09:44;17.50;95.40
76967;DHT22;65904;52.278;20.972;2023-03-31T15:12:34;17.50;95.40
76967;DHT22;65904;52.278;20.972;2023-03-31T15:15:22;17.50;95.40
76967;DHT22;65904;52.278;20.972;2023-03-31T15:18:10;17.40;95.40
76967;DHT22;65904;52.278;20.972;2023-03-31T15:20:57;17.10;96.00
76967;DHT22;65904;52.278;20.972;2023-03-31T15:23:43;16.80;96.10
76967;DHT22;65904;52.278;20.972;2023-03-31T15:26:33;16.50;96.60
76967;DHT22;65904;52.278;20.972;2023-03-31T15:29:25;16.20;97.10
76967;DHT22;65904;52.278;20.972;2023-03-31T15:32:18;16.10;97.70
76967;DHT22;65904;52.278;20.972;2023-03-31T15:35:17;15.90;97.70
76967;DHT22;65904;52.278;20.972;2023-03-31T15:38:05;15.70;98.10
76967;DHT22;65904;52.278;20.972;2023-03-31T15:40:52;15.50;98.60
76967;DHT22;65904;52.278;20.972;2023-03-31T15:43:45;15.00;99.90
76967;DHT22;65904;52.278;20.972;2023-03-31T15:46:56;14.50;99.90
76967;DHT22;65904;52.278;20.972;2023-03-31T15:49:52;13.90;99.90
76967;DHT22;65904;52.278;20.972;2023-03-31T15:52:45;13.70;99.90
76967;DHT22;65904;52.278;20.972;2023-03-31T15:55:39;13.40;99.90
76967;DHT22;65904;52.278;20.972;2023-03-31T15:58:51;13.30;99.90
76967;DHT22;65904;52.278;20.972;2023-03-31T16:01:41;13.10;99.90
76967;DHT22;65904;52.278;20.972;2023-03-31T16:04:31;12.90;99.90
76967;DHT22;65904;52.278;20.972;2023-03-31T16:07:21;12.80;99.90
76967;DHT22;65904;52.278;20.972;2023-03-31T16:10:13;12.60;99.90
76967;DHT22;65904;52.278;20.972;2023-03-31T16:13:02;12.40;99.90
76967;DHT22;65904;52.278;20.972;2023-03-31T16:15:51;12.40;99.90
76967;DHT22;65904;52.278;20.972;2023-03-31T16:18:40;12.40;99.90
76967;DHT22;65904;52.278;20.972;2023-03-31T16:21:34;12.50;99.90
76967;DHT22;65904;52.278;20.972;2023-03-31T16:24:28;12.40;99.90
76967;DHT22;65904;52.278;20.972;2023-03-31T16:27:15;12.50;99.90
76967;DHT22;65904;52.278;20.972;2023-03-31T16:30:07;12.50;99.90
76967;DHT22;65904;52.278;20.972;2023-03-31T16:33:03;12.40;99.90
76967;DHT22;65904;52.278;20.972;2023-03-31T16:35:51;12.40;99.90
76967;DHT22;65904;52.278;20.972;2023-03-31T16:38:40;12.40;99.90
76967;DHT22;65904;52.278;20.972;2023-03-31T16:41:27;12.40;99.90
76967;DHT22;65904;52.278;20.972;2023-03-31T16:44:14;12.40;99.90
76967;DHT22;65904;52.278;20.972;2023-03-31T16:47:00;12.40;99.90
76967;DHT22;65904;52.278;20.972;2023-03-31T16:49:46;12.40;99.90
76967;DHT22;65904;52.278;20.972;2023-03-31T16:52:33;12.30;99.90
76967;DHT22;65904;52.278;20.972;2023-03-31T16:55:20;12.30;99.90
76967;DHT22;65904;52.278;20.972;2023-03-31T16:58:07;12.20;99.90
76967;DHT22;65904;52.278;20.972;2023-03-31T17:00:54;12.20;99.90
76967;DHT22;65904;52.278;20.972;2023-03-31T17:03:40;12.20;99.90
76967;DHT22;65904;52.278;20.972;2023-03-31T17:06:26;12.20;99.90
76967;DHT22;65904;52.278;20.972;2023-03-31T17:09:13;12.20;99.90
76967;DHT22;65904;52.278;20.972;2023-03-31T17:12:01;12.10;99.90
76967;DHT22;65904;52.278;20.972;2023-03-31T17:14:47;12.10;99.90
76967;DHT22;65904;52.278;20.972;2023-03-31T17:17:33;12.10;99.90
76967;DHT22;65904;52.278;20.972;2023-03-31T17:20:20;12.10;99.90
76967;DHT22;65904;52.278;20.972;2023-03-31T17:23:06;12.20;99.90
76967;DHT22;65904;52.278;20.972;2023-03-31T17:25:52;12.20;99.90
76967;DHT22;65904;52.278;20.972;2023-03-31T17:28:40;12.20;99.90
76967;DHT22;65904;52.278;20.972;2023-03-31T17:31:26;12.30;99.90
76967;DHT22;65904;52.278;20.972;2023-03-31T17:34:13;12.30;99.90
76967;DHT22;65904;52.278;20.972;2023-03-31T17:37:01;12.30;99.90
76967;DHT22;65904;52.278;20.972;2023-03-31T17:39:47;12.40;99.90
76967;DHT22;65904;52.278;20.972;2023-03-31T17:42:34;12.50;99.90
76967;DHT22;65904;52.278;20.972;2023-03-31T17:45:22;12.50;99.90
76967;DHT22;65904;52.278;20.972;2023-03-31T17:48:09;12.30;99.90
76967;DHT22;65904;52.278;20.972;2023-03-31T17:50:55;12.10;99.90
76967;DHT22;65904;52.278;20.972;2023-03-31T17:53:42;12.00;99.90
76967;DHT22;65904;52.278;20.972;2023-03-31T17:56:28;11.80;99.90
76967;DHT22;65904;52.278;20.972;2023-03-31T17:59:15;11.70;99.90